createdAt,value
2018-03-30T00:01:34.029Z,98035
2018-03-30T00:04:01.171Z,98029
2018-03-30T00:06:28.288Z,98027
2018-03-30T00:08:55.289Z,98026
2018-03-30T00:11:28.269Z,98030
2018-03-30T00:13:56.109Z,98035
2018-03-30T00:16:23.089Z,98026
2018-03-30T00:18:50.110Z,98024
2018-03-30T00:21:17.209Z,98025
2018-03-30T00:23:44.249Z,98012
2018-03-30T00:26:11.289Z,98002
2018-03-30T00:28:38.348Z,97991
2018-03-30T00:31:05.350Z,97978
2018-03-30T00:33:32.449Z,97977
2018-03-30T00:35:59.529Z,97971
2018-03-30T00:38:26.629Z,97970
2018-03-30T00:40:53.769Z,97973
2018-03-30T00:43:20.769Z,97982
2018-03-30T00:45:48.109Z,97978
2018-03-30T00:48:15.150Z,97976
2018-03-30T00:50:42.209Z,97976
2018-03-30T00:56:13.509Z,97973
2018-03-30T00:58:41.288Z,97966
2018-03-30T01:01:08.349Z,97964
2018-03-30T01:03:35.350Z,97969
2018-03-30T01:06:02.349Z,97967
2018-03-30T01:08:29.349Z,97968
2018-03-30T01:10:56.469Z,97971
2018-03-30T01:13:23.469Z,97967
2018-03-30T01:15:50.569Z,97970
2018-03-30T01:18:17.691Z,97965
2018-03-30T01:20:44.749Z,97978
2018-03-30T01:23:11.809Z,97974
2018-03-30T01:25:38.972Z,97984
2018-03-30T01:28:06.029Z,97996
2018-03-30T01:30:33.230Z,97987
2018-03-30T01:33:00.350Z,97981
2018-03-30T01:35:27.379Z,97988
2018-03-30T01:37:54.419Z,97986
2018-03-30T01:40:21.402Z,97987
2018-03-30T01:42:48.362Z,97976
2018-03-30T01:45:15.421Z,97976
2018-03-30T01:47:42.449Z,97984
2018-03-30T01:50:09.442Z,97973
2018-03-30T01:52:36.480Z,97957
2018-03-30T01:55:03.545Z,97956
2018-03-30T01:57:30.541Z,97960
2018-03-30T01:59:57.561Z,97963
2018-03-30T02:02:30.261Z,97960
2018-03-30T02:04:57.241Z,97961
2018-03-30T02:07:24.141Z,97965
2018-03-30T02:09:51.043Z,97966
2018-03-30T02:12:18.022Z,97967
2018-03-30T02:14:45.022Z,97961
2018-03-30T02:17:19.781Z,97961
2018-03-30T02:19:47.521Z,97959
2018-03-30T02:22:14.468Z,97947
2018-03-30T02:24:41.523Z,97955
2018-03-30T02:27:08.501Z,97959
2018-03-30T02:29:35.441Z,97957
2018-03-30T02:32:02.542Z,97947
2018-03-30T02:34:29.683Z,97946
2018-03-30T02:36:56.722Z,97943
2018-03-30T02:39:23.763Z,97940
2018-03-30T02:41:50.762Z,97929
2018-03-30T02:44:18.504Z,97919
2018-03-30T02:46:45.522Z,97915
2018-03-30T02:49:12.503Z,97905
2018-03-30T02:51:40.243Z,97902
2018-03-30T02:54:07.285Z,97900
2018-03-30T02:56:34.284Z,97908
2018-03-30T02:59:01.267Z,97900
2018-03-30T03:01:28.342Z,97895
2018-03-30T03:03:55.323Z,97900
2018-03-30T03:06:22.223Z,97893
2018-03-30T03:08:49.182Z,97887
2018-03-30T03:11:16.122Z,97891
2018-03-30T03:13:43.160Z,97896
2018-03-30T03:16:10.182Z,97910
2018-03-30T03:18:37.162Z,97907
2018-03-30T03:21:04.202Z,97904
2018-03-30T03:23:31.222Z,97899
2018-03-30T03:25:58.205Z,97900
2018-03-30T03:28:25.181Z,97898
2018-03-30T03:30:52.223Z,97884
2018-03-30T03:33:19.241Z,97890
2018-03-30T03:35:46.245Z,97891
2018-03-30T03:38:13.321Z,97878
2018-03-30T03:40:40.361Z,97877
2018-03-30T03:43:07.361Z,97871
2018-03-30T03:45:34.481Z,97875
2018-03-30T03:48:01.541Z,97873
2018-03-30T03:50:28.561Z,97874
2018-03-30T03:52:55.641Z,97873
2018-03-30T03:55:23.361Z,97878
2018-03-30T03:57:50.361Z,97887
2018-03-30T04:00:17.361Z,97885
2018-03-30T04:02:44.321Z,97892
2018-03-30T04:05:11.325Z,97891
2018-03-30T04:07:38.284Z,97896
2018-03-30T04:10:05.221Z,97892
2018-03-30T04:12:32.302Z,97879
2018-03-30T04:14:59.324Z,97875
2018-03-30T04:17:26.341Z,97877
2018-03-30T04:19:53.401Z,97885
2018-03-30T04:22:20.441Z,97889
2018-03-30T04:24:47.423Z,97884
2018-03-30T04:27:14.572Z,97881
2018-03-30T04:29:41.581Z,97870
2018-03-30T04:32:08.661Z,97871
2018-03-30T04:34:35.721Z,97869
2018-03-30T04:37:02.761Z,97872
2018-03-30T04:39:29.805Z,97870
2018-03-30T04:41:56.821Z,97883
2018-03-30T04:44:23.841Z,97890
2018-03-30T04:46:50.861Z,97889
2018-03-30T04:49:17.922Z,97894
2018-03-30T04:51:45.662Z,97884
2018-03-30T04:54:12.701Z,97882
2018-03-30T04:56:39.681Z,97884
2018-03-30T04:59:06.740Z,97877
2018-03-30T05:01:33.881Z,97880
2018-03-30T05:04:00.860Z,97869
2018-03-30T05:06:34.760Z,97863
2018-03-30T05:09:01.701Z,97858
2018-03-30T05:11:28.681Z,97849
2018-03-30T05:13:55.701Z,97854
2018-03-30T05:16:22.740Z,97841
2018-03-30T05:18:49.743Z,97838
2018-03-30T05:21:17.601Z,97829
2018-03-30T05:23:44.660Z,97829
2018-03-30T05:26:11.666Z,97830
2018-03-30T05:28:38.666Z,97834
2018-03-30T05:31:05.706Z,97826
2018-03-30T05:33:32.701Z,97817
2018-03-30T05:35:59.761Z,97810
2018-03-30T05:38:26.781Z,97802
2018-03-30T05:40:53.780Z,97810
2018-03-30T05:43:20.861Z,97803
2018-03-30T05:45:47.901Z,97794
2018-03-30T05:48:15.701Z,97785
2018-03-30T05:50:42.742Z,97781
2018-03-30T05:53:09.741Z,97779
2018-03-30T05:55:36.741Z,97775
2018-03-30T05:58:03.843Z,97772
2018-03-30T06:00:30.883Z,97783
2018-03-30T06:02:57.861Z,97780
2018-03-30T06:05:24.861Z,97783
2018-03-30T06:07:51.841Z,97789
2018-03-30T06:10:18.861Z,97792
2018-03-30T06:12:45.766Z,97802
2018-03-30T06:15:12.661Z,97789
2018-03-30T06:17:39.701Z,97789
2018-03-30T06:20:06.781Z,97793
2018-03-30T06:22:33.801Z,97784
2018-03-30T06:25:00.861Z,97786
2018-03-30T06:27:27.861Z,97757
2018-03-30T06:29:54.921Z,97748
2018-03-30T06:32:21.980Z,97746
2018-03-30T06:34:48.960Z,97739
2018-03-30T06:37:16.021Z,97736
2018-03-30T06:39:43.121Z,97742
2018-03-30T06:42:10.181Z,97745
2018-03-30T06:44:37.921Z,97749
2018-03-30T06:47:04.961Z,97757
2018-03-30T06:49:31.982Z,97749
2018-03-30T06:51:58.943Z,97744
2018-03-30T06:54:25.981Z,97734
2018-03-30T06:56:53.041Z,97724
2018-03-30T06:59:20.041Z,97728
2018-03-30T07:01:47.001Z,97734
2018-03-30T07:04:14.741Z,97735
2018-03-30T07:06:41.721Z,97735
2018-03-30T07:09:08.765Z,97741
2018-03-30T07:11:35.722Z,97745
2018-03-30T07:14:02.782Z,97743
2018-03-30T07:16:29.821Z,97749
2018-03-30T07:18:56.861Z,97740
2018-03-30T07:21:23.860Z,97738
2018-03-30T07:23:50.882Z,97739
2018-03-30T07:26:17.912Z,97737
2018-03-30T07:28:45.000Z,97737
2018-03-30T07:31:12.041Z,97739
2018-03-30T07:33:39.062Z,97736
2018-03-30T07:36:06.101Z,97734
2018-03-30T07:38:33.141Z,97732
2018-03-30T07:41:00.141Z,97715
2018-03-30T07:43:27.161Z,97715
2018-03-30T07:45:54.201Z,97711
2018-03-30T07:48:21.182Z,97705
2018-03-30T07:50:48.163Z,97704
2018-03-30T07:53:15.201Z,97702
2018-03-30T07:55:42.161Z,97705
2018-03-30T07:58:09.081Z,97703
2018-03-30T08:00:36.121Z,97708
2018-03-30T08:03:03.181Z,97697
2018-03-30T08:05:30.202Z,97697
2018-03-30T08:07:57.201Z,97694
2018-03-30T08:10:24.224Z,97692
2018-03-30T08:12:51.304Z,97689
2018-03-30T08:15:23.321Z,97681
2018-03-30T08:17:50.381Z,97689
2018-03-30T08:20:17.421Z,97696
2018-03-30T08:22:44.441Z,97686
2018-03-30T08:25:11.501Z,97684
2018-03-30T08:27:38.562Z,97680
2018-03-30T08:30:05.562Z,97666
2018-03-30T08:32:32.626Z,97644
2018-03-30T08:34:59.622Z,97657
2018-03-30T08:37:26.601Z,97646
2018-03-30T08:39:53.627Z,97644
2018-03-30T08:42:20.641Z,97638
2018-03-30T08:44:47.641Z,97645
2018-03-30T08:47:15.447Z,97636
2018-03-30T08:49:42.461Z,97647
2018-03-30T08:52:09.441Z,97649
2018-03-30T08:54:36.502Z,97646
2018-03-30T08:57:03.541Z,97635
2018-03-30T08:59:30.601Z,97626
2018-03-30T09:01:57.741Z,97623
2018-03-30T09:04:24.801Z,97616
2018-03-30T09:06:51.802Z,97593
2018-03-30T09:09:18.861Z,97600
2018-03-30T09:11:45.883Z,97580
2018-03-30T09:14:12.921Z,97593
2018-03-30T09:16:40.622Z,97581
2018-03-30T09:19:07.561Z,97573
2018-03-30T09:21:34.662Z,97584
2018-03-30T09:24:01.681Z,97572
2018-03-30T09:26:28.741Z,97574
2018-03-30T09:28:55.721Z,97546
2018-03-30T09:31:30.541Z,97555
2018-03-30T09:33:58.401Z,97545
2018-03-30T09:36:26.161Z,97544
2018-03-30T09:38:53.221Z,97545
2018-03-30T09:41:20.981Z,97535
2018-03-30T09:43:48.742Z,97533
2018-03-30T09:46:16.522Z,97521
2018-03-30T09:48:43.541Z,97534
2018-03-30T09:51:10.605Z,97513
2018-03-30T09:53:38.442Z,97511
2018-03-30T09:56:05.526Z,97494
2018-03-30T09:58:32.587Z,97500
2018-03-30T10:01:01.629Z,97501
2018-03-30T10:03:28.787Z,97483
2018-03-30T10:05:55.827Z,97495
2018-03-30T10:08:22.867Z,97489
2018-03-30T10:10:49.994Z,97490
2018-03-30T10:13:17.087Z,97485
2018-03-30T10:15:44.949Z,97482
2018-03-30T10:18:11.989Z,97478
2018-03-30T10:20:39.007Z,97474
2018-03-30T10:23:05.992Z,97471
2018-03-30T10:25:33.027Z,97470
2018-03-30T10:28:00.047Z,97455
2018-03-30T10:30:27.087Z,97465
2018-03-30T10:32:54.148Z,97468
2018-03-30T10:35:21.228Z,97454
2018-03-30T10:37:48.227Z,97450
2018-03-30T10:40:15.287Z,97459
2018-03-30T10:42:42.366Z,97443
2018-03-30T10:45:09.326Z,97444
2018-03-30T10:47:36.328Z,97441
2018-03-30T10:50:04.870Z,97435
2018-03-30T10:52:31.926Z,97450
2018-03-30T10:54:58.946Z,97454
2018-03-30T10:57:26.707Z,97453
2018-03-30T10:59:54.487Z,97449
2018-03-30T11:02:21.526Z,97435
2018-03-30T11:04:48.547Z,97443
2018-03-30T11:07:15.586Z,97439
2018-03-30T11:09:42.574Z,97443
2018-03-30T11:12:09.608Z,97431
2018-03-30T11:14:36.667Z,97423
2018-03-30T11:17:03.727Z,97428
2018-03-30T11:19:30.766Z,97421
2018-03-30T11:21:57.830Z,97412
2018-03-30T11:24:24.817Z,97404
2018-03-30T11:26:51.814Z,97398
2018-03-30T11:29:18.887Z,97406
2018-03-30T11:31:46.007Z,97392
2018-03-30T11:34:13.107Z,97396
2018-03-30T11:36:40.157Z,97392
2018-03-30T11:39:07.277Z,97380
2018-03-30T11:41:34.362Z,97374
2018-03-30T11:44:02.397Z,97361
2018-03-30T11:46:29.396Z,97365
2018-03-30T11:48:56.506Z,97350
2018-03-30T11:51:23.637Z,97360
2018-03-30T11:53:50.608Z,97350
2018-03-30T11:56:17.726Z,97347
2018-03-30T11:58:44.844Z,97342
2018-03-30T12:01:11.902Z,97332
2018-03-30T12:03:43.970Z,97337
2018-03-30T12:06:10.969Z,97333
2018-03-30T12:08:38.050Z,97334
2018-03-30T12:11:04.990Z,97322
2018-03-30T12:13:32.062Z,97319
2018-03-30T12:15:59.106Z,97311
2018-03-30T12:18:26.090Z,97301
2018-03-30T12:20:53.047Z,97294
2018-03-30T12:23:20.706Z,97286
2018-03-30T12:25:47.667Z,97277
2018-03-30T12:28:15.445Z,97280
2018-03-30T12:30:42.419Z,97275
2018-03-30T12:33:09.267Z,97275
2018-03-30T12:35:36.329Z,97262
2018-03-30T12:38:03.187Z,97255
2018-03-30T12:40:30.061Z,97255
2018-03-30T12:42:57.054Z,97253
2018-03-30T12:45:24.147Z,97232
2018-03-30T12:47:51.114Z,97221
2018-03-30T12:50:18.067Z,97223
2018-03-30T12:52:44.946Z,97221
2018-03-30T12:55:11.796Z,97214
2018-03-30T12:57:38.949Z,97199
2018-03-30T13:00:05.986Z,97198
2018-03-30T13:02:32.887Z,97201
2018-03-30T13:05:00.627Z,97183
2018-03-30T13:07:27.634Z,97176
2018-03-30T13:09:54.511Z,97177
2018-03-30T13:12:21.402Z,97165
2018-03-30T13:14:48.392Z,97164
2018-03-30T13:17:15.426Z,97158
2018-03-30T13:19:42.295Z,97152
2018-03-30T13:22:09.387Z,97145
2018-03-30T13:24:36.327Z,97142
2018-03-30T13:27:03.335Z,97135
2018-03-30T13:29:30.201Z,97134
2018-03-30T13:31:57.219Z,97139
2018-03-30T13:34:24.309Z,97124
2018-03-30T13:36:51.335Z,97124
2018-03-30T13:39:18.273Z,97117
2018-03-30T13:41:45.287Z,97111
2018-03-30T13:44:13.208Z,97120
2018-03-30T13:46:40.123Z,97109
2018-03-30T13:49:07.083Z,97104
2018-03-30T13:51:42.068Z,97104
2018-03-30T13:54:25.907Z,97104
2018-03-30T13:57:00.387Z,97107
2018-03-30T13:59:28.534Z,97097
2018-03-30T14:02:15.220Z,97088
2018-03-30T14:05:05.969Z,97081
2018-03-30T14:10:58.727Z,97067
2018-03-30T14:13:25.871Z,97067
2018-03-30T14:15:59.506Z,97061
2018-03-30T14:18:53.134Z,97065
2018-03-30T14:21:35.843Z,97056
2018-03-30T14:24:09.107Z,97045
2018-03-30T14:26:58.888Z,97037
2018-03-30T14:29:48.775Z,97035
2018-03-30T14:32:37.427Z,97017
2018-03-30T14:38:12.424Z,97013
2018-03-30T14:40:44.147Z,97010
2018-03-30T14:43:16.056Z,97016
2018-03-30T14:48:45.470Z,97012
2018-03-30T14:51:36.354Z,97000
2018-03-30T14:54:06.467Z,97010
2018-03-30T14:59:33.556Z,97024
2018-03-30T15:02:06.347Z,97009
2018-03-30T15:04:35.448Z,97012
2018-03-30T15:07:14.247Z,97013
2018-03-30T15:12:45.467Z,96988
2018-03-30T15:15:19.387Z,96985
2018-03-30T15:17:48.455Z,96978
2018-03-30T15:20:21.211Z,96978
2018-03-30T15:23:20.888Z,96979
2018-03-30T15:25:49.975Z,96980
2018-03-30T15:28:16.954Z,96982
2018-03-30T15:30:55.067Z,96973
2018-03-30T15:33:50.407Z,96969
2018-03-30T15:36:58.987Z,96969
2018-03-30T15:39:26.010Z,96968
2018-03-30T15:41:53.965Z,96960
2018-03-30T15:44:20.971Z,96956
2018-03-30T15:46:52.248Z,96956
2018-03-30T15:49:22.421Z,96968
2018-03-30T15:51:52.427Z,96961
2018-03-30T15:54:18.939Z,96963
2018-03-30T15:56:46.187Z,96957
2018-03-30T15:59:13.431Z,96954
2018-03-30T16:01:40.711Z,96951
2018-03-30T16:04:07.794Z,96949
2018-03-30T16:06:40.595Z,96953
2018-03-30T16:09:15.427Z,96948
2018-03-30T16:11:48.007Z,96945
2018-03-30T16:14:15.080Z,96952
2018-03-30T16:16:42.459Z,96950
2018-03-30T16:19:09.787Z,96933
2018-03-30T16:21:36.408Z,96937
2018-03-30T16:24:02.910Z,96943
2018-03-30T16:26:29.507Z,96948
2018-03-30T16:29:02.147Z,96946
2018-03-30T16:31:29.068Z,96960
2018-03-30T16:33:55.627Z,96947
2018-03-30T16:36:22.249Z,96944
2018-03-30T16:38:48.807Z,96950
2018-03-30T16:41:15.347Z,96945
2018-03-30T16:43:41.907Z,96943
2018-03-30T16:46:08.507Z,96940
2018-03-30T16:48:35.047Z,96940
2018-03-30T16:51:01.611Z,96942
2018-03-30T16:53:28.215Z,96927
2018-03-30T16:55:54.807Z,96934
2018-03-30T16:58:22.087Z,96931
2018-03-30T17:00:48.728Z,96931
2018-03-30T17:03:15.287Z,96931
2018-03-30T17:05:41.895Z,96929
2018-03-30T17:08:08.567Z,96931
2018-03-30T17:10:35.188Z,96932
2018-03-30T17:13:01.747Z,96938
2018-03-30T17:15:28.387Z,96935
2018-03-30T17:17:54.948Z,96928
2018-03-30T17:20:21.507Z,96940
2018-03-30T17:22:48.507Z,96934
2018-03-30T17:25:15.022Z,96936
2018-03-30T17:27:41.607Z,96933
2018-03-30T17:30:08.228Z,96935
2018-03-30T17:32:34.907Z,96932
2018-03-30T17:35:01.447Z,96920
2018-03-30T17:37:28.069Z,96935
2018-03-30T17:39:54.727Z,96937
2018-03-30T17:42:21.287Z,96943
2018-03-30T17:44:47.867Z,96933
2018-03-30T17:47:14.426Z,96942
2018-03-30T17:49:40.967Z,96949
2018-03-30T17:52:07.564Z,96948
2018-03-30T17:54:34.107Z,96954
2018-03-30T17:57:00.727Z,96951
2018-03-30T17:59:27.426Z,96964
2018-03-30T18:01:54.027Z,96953
2018-03-30T18:04:20.588Z,96946
2018-03-30T18:06:47.267Z,96941
2018-03-30T18:09:13.895Z,96943
2018-03-30T18:11:40.567Z,96939
2018-03-30T18:14:21.587Z,96934
2018-03-30T18:17:01.928Z,96949
2018-03-30T18:19:41.591Z,96948
2018-03-30T18:22:21.907Z,96952
2018-03-30T18:25:01.827Z,96956
2018-03-30T18:27:42.248Z,96959
2018-03-30T18:30:21.987Z,96960
2018-03-30T18:33:02.498Z,96958
2018-03-30T18:35:42.227Z,96953
2018-03-30T18:38:21.987Z,96967
2018-03-30T18:41:01.689Z,96960
2018-03-30T18:43:41.709Z,96959
2018-03-30T18:46:21.307Z,96959
2018-03-30T18:49:00.936Z,96959
2018-03-30T18:51:40.667Z,96966
2018-03-30T18:54:20.376Z,96970
2018-03-30T18:57:00.068Z,96966
2018-03-30T18:59:39.767Z,96970
2018-03-30T19:02:19.529Z,96963
2018-03-30T19:05:00.068Z,96956
2018-03-30T19:07:39.627Z,96958
2018-03-30T19:10:19.348Z,96955
2018-03-30T19:12:58.988Z,96965
2018-03-30T19:15:38.468Z,96962
2018-03-30T19:18:18.229Z,96952
2018-03-30T19:20:57.953Z,96948
2018-03-30T19:23:37.816Z,96964
2018-03-30T19:26:18.276Z,96958
2018-03-30T19:28:58.217Z,96954
2018-03-30T19:31:38.056Z,96967
2018-03-30T19:34:18.488Z,96961
2018-03-30T19:36:59.335Z,96957
2018-03-30T19:39:39.415Z,96953
2018-03-30T19:42:19.847Z,96948
2018-03-30T19:44:59.713Z,96944
2018-03-30T19:47:39.347Z,96938
2018-03-30T19:50:19.848Z,96940
2018-03-30T19:52:59.816Z,96933
2018-03-30T19:55:39.447Z,96926
2018-03-30T19:58:20.147Z,96926
2018-03-30T20:01:00.013Z,96919
2018-03-30T20:03:39.831Z,96931
2018-03-30T20:06:20.270Z,96926
2018-03-30T20:08:59.907Z,96921
2018-03-30T20:11:39.687Z,96915
2018-03-30T20:14:19.448Z,96926
2018-03-30T20:16:59.367Z,96935
2018-03-30T20:19:39.068Z,96927
2018-03-30T20:22:19.005Z,96929
2018-03-30T20:24:59.589Z,96918
2018-03-30T20:27:39.287Z,96915
2018-03-30T20:30:19.227Z,96903
2018-03-30T20:32:58.867Z,96900
2018-03-30T20:35:39.368Z,96902
2018-03-30T20:38:19.128Z,96903
2018-03-30T20:40:59.027Z,96905
2018-03-30T20:43:38.868Z,96890
2018-03-30T20:46:18.407Z,96889
2018-03-30T20:48:57.989Z,96889
2018-03-30T20:51:37.768Z,96898
2018-03-30T20:54:17.550Z,96901
2018-03-30T20:56:58.247Z,96892
2018-03-30T20:59:38.135Z,96877
2018-03-30T21:02:18.548Z,96887
2018-03-30T21:04:59.027Z,96889
2018-03-30T21:07:39.015Z,96888
2018-03-30T21:10:18.891Z,96878
2018-03-30T21:12:58.547Z,96871
2018-03-30T21:15:38.308Z,96878
2018-03-30T21:18:18.807Z,96867
2018-03-30T21:20:58.327Z,96871
2018-03-30T21:23:38.067Z,96872
2018-03-30T21:26:18.327Z,96865
2018-03-30T21:28:58.627Z,96870
2018-03-30T21:31:38.347Z,96865
2018-03-30T21:34:18.267Z,96860
2018-03-30T21:36:58.028Z,96854
2018-03-30T21:39:37.687Z,96843
2018-03-30T21:42:17.335Z,96853
2018-03-30T21:44:57.028Z,96858
2018-03-30T21:47:36.786Z,96859
2018-03-30T21:50:16.605Z,96867
2018-03-30T21:52:56.387Z,96864
2018-03-30T21:55:36.147Z,96859
2018-03-30T21:58:15.991Z,96847
2018-03-30T22:00:55.668Z,96835
2018-03-30T22:03:35.307Z,96821
2018-03-30T22:06:15.028Z,96819
2018-03-30T22:08:54.887Z,96810
2018-03-30T22:11:34.947Z,96823
2018-03-30T22:14:15.127Z,96840
2018-03-30T22:16:54.967Z,96843
2018-03-30T22:19:34.567Z,96826
2018-03-30T22:22:14.426Z,96804
2018-03-30T22:24:54.988Z,96798
2018-03-30T22:27:34.647Z,96799
2018-03-30T22:30:14.301Z,96805
2018-03-30T22:32:53.867Z,96819
2018-03-30T22:35:33.667Z,96817
2018-03-30T22:38:14.227Z,96816
2018-03-30T22:40:53.947Z,96810
2018-03-30T22:43:33.667Z,96801
2018-03-30T22:46:13.207Z,96800
2018-03-30T22:48:52.827Z,96794
2018-03-30T22:51:32.547Z,96790
2018-03-30T22:54:12.087Z,96788
2018-03-30T22:56:51.766Z,96776
2018-03-30T22:59:31.587Z,96779
2018-03-30T23:02:12.029Z,96780
2018-03-30T23:04:51.947Z,96775
2018-03-30T23:07:31.487Z,96766
2018-03-30T23:10:11.865Z,96757
2018-03-30T23:12:52.055Z,96756
2018-03-30T23:15:32.087Z,96749
2018-03-30T23:18:11.747Z,96743
2018-03-30T23:20:51.427Z,96750
2018-03-30T23:23:31.187Z,96742
2018-03-30T23:26:10.887Z,96744
2018-03-30T23:28:50.546Z,96740
2018-03-30T23:31:30.247Z,96744
2018-03-30T23:34:09.989Z,96743
2018-03-30T23:36:49.606Z,96739
2018-03-30T23:39:30.147Z,96736
2018-03-30T23:42:10.092Z,96733
2018-03-30T23:44:50.695Z,96699
2018-03-30T23:47:30.547Z,96718
2018-03-30T23:50:10.947Z,96710
2018-03-30T23:52:50.747Z,96706
2018-03-30T23:55:31.026Z,96695
2018-03-30T23:58:10.809Z,96701
